Terminal Aerodrome Forecast
Issued by NWS

Home | Current Version | Previous Version | Text Only | Print | Product List | Glossary On
Versions: 1 2 3 4 5 6 7 8 9 10 11 12 13 14 15 16 17 18
000
FTUS43 KOAX 311120
TAFCDR
TAF
KCDR 311120Z 3112/0112 27010KT P6SM VCSH BKN100
     FM311500 33014G25KT P6SM BKN100
     FM312000 15011G20KT P6SM BKN100
     FM010100 19011KT P6SM BKN100=

USA.gov is the U.S. government's official web portal to all federal, state and local government web resources and services.